Flight Track Log - Related Links

Times and Time Zones

All times are in EST time to prevent confusion due to time zone crossing. See the EGF3185 flight status page for this flight to view local times or setup timezone preferences in your user account.

Time Position Orientation Groundspeed Altitude Reporting Facility
EST Latitude Longitude Course Direction KTS MPH feet Rate Location/Type
Wed 09:27:55 PM 42.0000 -87.9000 324° Northwest 148 170 1,300  Level Chicago TRACON
Wed 09:28:55 PM 42.0500 -87.8833 14° North 183 211 3,400 1,934 Climbing Chicago TRACON
Wed 09:30:00 PM 42.2466 -87.9877 346° North  Level FlightAware Approximate
Wed 09:30:27 PM 42.1383 -87.8486 16° North 243 280 6,200  Level Chicago Center
Wed 09:31:00 PM 42.3404 -88.0143 350° North  Level FlightAware Approximate
Wed 09:31:29 PM 42.2103 -87.8325 North 263 303 8,700  Level Chicago Center
Wed 09:32:00 PM 42.4226 -88.0512 352° North  Level FlightAware Approximate
Wed 09:32:31 PM 42.2961 -87.8414 356° North 286 329 11,000  Level Chicago Center
Wed 09:33:00 PM 42.5142 -88.0809 324° Northwest  Level FlightAware Approximate
Wed 09:33:33 PM 42.3792 -87.8422 360° North 288 331 12,900  Level Chicago Center
Wed 09:34:35 PM 42.4628 -87.8450 359° North 300 345 15,000 1,694 Climbing Chicago Center
Wed 09:35:37 PM 42.5328 -87.8956 332° Northwest 299 344 16,400 1,210 Climbing Chicago Center
Wed 09:36:39 PM 42.5875 -87.9914 308° West 315 362 17,500 968 Climbing Chicago Center
Wed 09:37:41 PM 42.6439 -88.0894 308° West 326 375 18,400 1,073 Climbing Chicago Center
Wed 09:38:42 PM 42.7014 -88.1900 308° West 334 384 19,700 1,415 Climbing Chicago Center
Wed 09:39:44 PM 42.7717 -88.3147 308° West 344 396 21,300 1,403 Climbing Chicago Center
Wed 09:40:46 PM 42.8308 -88.4194 308° West 348 400 22,600 1,210 Climbing Chicago Center
Wed 09:41:48 PM 42.8900 -88.5258 307° West 350 403 23,800 1,258 Climbing Chicago Center
Wed 09:42:50 PM 42.9489 -88.6319 307° West 350 403 25,200 1,355 Climbing Chicago Center
Wed 09:43:52 PM 43.0072 -88.7353 308° West 344 396 26,600 1,415 Climbing Chicago Center
Wed 09:44:53 PM 43.0628 -88.8356 307° West 332 382 28,100 1,415 Climbing Chicago Center
Wed 09:45:55 PM 43.1172 -88.9317 308° West 321 369 29,500 1,306 Climbing Chicago Center
Wed 09:46:57 PM 43.1706 -89.0308 306° West 322 371 30,800 1,366 Climbing Chicago Center
Wed 09:47:58 PM 43.2353 -89.1469 307° West 320 368 32,300 1,366 Climbing Chicago Center
Wed 09:49:00 PM 43.2892 -89.2464 307° West 322 371 33,600 1,161 Climbing Chicago Center
Wed 09:50:02 PM 43.3422 -89.3436 307° West 319 367 34,700 976 Climbing Chicago Center
Wed 09:51:03 PM 43.3944 -89.4406 307° West 314 361 35,600 634 Climbing Chicago Center
Wed 09:52:05 PM 43.4478 -89.5381 307° West 318 366 36,000 195 Climbing Chicago Center
Wed 09:53:06 PM 43.5036 -89.6439 306° West 332 382 36,000  Level Chicago Center
Wed 09:54:08 PM 43.5658 -89.7558 308° West 358 412 36,000  Level Chicago Center
Wed 09:55:10 PM 43.6289 -89.8750 306° West 376 433 36,000  Level Chicago Center
Wed 09:56:11 PM 43.7061 -90.0231 306° West 393 452 36,000  Level Chicago Center
Wed 09:57:13 PM 43.7700 -90.1447 306° West 393 452 36,000  Level Chicago Center
Wed 09:58:14 PM 43.8353 -90.2672 306° West 396 456 36,000  Level Chicago Center
Wed 09:58:55 PM 43.8750 -90.3400 307° West 393 452 36,000  Level Minneapolis Center
Wed 09:59:57 PM 43.9386 -90.4631 306° West 393 452 36,000  Level Minneapolis Center
Wed 10:00:58 PM 44.0122 -90.6042 306° West 392 451 36,000  Level Minneapolis Center
Wed 10:01:59 PM 44.0758 -90.7261 306° West 392 451 36,000  Level Minneapolis Center
Wed 10:03:01 PM 44.1383 -90.8469 306° West 392 451 36,000  Level Minneapolis Center
Wed 10:04:02 PM 44.2014 -90.9672 306° West 391 450 36,000  Level Minneapolis Center
Wed 10:05:04 PM 44.2642 -91.0897 306° West 391 450 36,000  Level Minneapolis Center
Wed 10:06:05 PM 44.3369 -91.2342 305° West 391 450 36,000  Level Minneapolis Center
Wed 10:07:07 PM 44.4003 -91.3597 305° West 392 451 36,000  Level Minneapolis Center
Wed 10:08:08 PM 44.4639 -91.4836 306° West 392 451 36,000  Level Minneapolis Center
Wed 10:09:10 PM 44.5261 -91.6089 305° West 393 452 36,000  Level Minneapolis Center
Wed 10:10:11 PM 44.5897 -91.7339 306° West 393 452 36,000  Level Minneapolis Center
Wed 10:11:13 PM 44.6528 -91.8592 305° West 393 452 36,000  Level Minneapolis Center
Wed 10:12:14 PM 44.7150 -91.9836 305° West 393 452 36,000  Level Minneapolis Center
Wed 10:13:15 PM 44.7772 -92.1094 305° West 393 452 36,000  Level Minneapolis Center
Wed 10:14:17 PM 44.8508 -92.2592 305° West 393 452 36,000  Level Minneapolis Center
Wed 10:15:18 PM 44.9117 -92.3833 305° West 392 451 36,000  Level Minneapolis Center
Wed 10:16:19 PM 44.9719 -92.5067 305° West 390 449 36,000  Level Minneapolis Center
Wed 10:17:21 PM 45.0325 -92.6297 305° West 389 448 36,000  Level Minneapolis Center
Wed 10:18:22 PM 45.0922 -92.7544 304° West 389 448 36,000  Level Minneapolis Center
Wed 10:19:23 PM 45.1519 -92.8789 304° West 388 447 36,000  Level Minneapolis Center
Wed 10:20:24 PM 45.2114 -93.0033 304° West 388 447 36,000  Level Minneapolis Center
Wed 10:21:26 PM 45.2719 -93.1275 305° West 388 447 36,000  Level Minneapolis Center
Wed 10:22:27 PM 45.3431 -93.2775 304° West 387 445 36,000  Level Minneapolis Center
Wed 10:23:28 PM 45.4022 -93.4036 304° West 387 445 36,000  Level Minneapolis Center
Wed 10:24:29 PM 45.4619 -93.5306 304° West 387 445 36,000  Level Minneapolis Center
Wed 10:25:30 PM 45.5211 -93.6558 304° West 386 444 36,000  Level Minneapolis Center
Wed 10:26:32 PM 45.5806 -93.7831 304° West 386 444 36,000  Level Minneapolis Center
Wed 10:27:33 PM 45.6411 -93.9097 304° West 386 444 36,000  Level Minneapolis Center
Wed 10:28:34 PM 45.6994 -94.0394 303° West 386 444 36,000  Level Minneapolis Center
Wed 10:29:35 PM 45.7594 -94.1667 304° West 387 445 36,000  Level Minneapolis Center
Wed 10:30:36 PM 45.8292 -94.3217 303° West 387 445 36,000  Level Minneapolis Center
Wed 10:31:38 PM 45.8886 -94.4497 304° West 387 445 36,000  Level Minneapolis Center
Wed 10:32:39 PM 45.9464 -94.5767 303° West 386 444 36,000  Level Minneapolis Center
Wed 10:33:40 PM 46.0044 -94.7056 303° West 386 444 36,000  Level Minneapolis Center
Wed 10:34:41 PM 46.0608 -94.8331 303° West 384 442 36,000 -49 Level Minneapolis Center
Wed 10:35:42 PM 46.1186 -94.9597 303° West 383 441 35,900 -787 Descending Minneapolis Center
Wed 10:36:43 PM 46.1764 -95.0906 303° West 371 427 34,400 -2,066 Descending Minneapolis Center
Wed 10:37:44 PM 46.2292 -95.2092 303° West 351 404 31,700 -2,557 Descending Minneapolis Center
Wed 10:38:45 PM 46.2800 -95.3239 303° West 343 395 29,200 -2,488 Descending Minneapolis Center
Wed 10:39:47 PM 46.3319 -95.4442 302° West 349 402 26,600 -2,439 Descending Minneapolis Center
Wed 10:40:48 PM 46.3886 -95.5708 303° West 380 437 24,200 -2,410 Descending Minneapolis Center
Wed 10:41:49 PM 46.4450 -95.7028 302° West 383 441 21,700 -2,754 Descending Minneapolis Center
Wed 10:42:50 PM 46.5111 -95.8514 303° West 376 433 18,600 -2,705 Descending Minneapolis Center
Wed 10:43:51 PM 46.5619 -95.9719 302° West 344 396 16,200 -2,164 Descending Minneapolis Center
Wed 10:44:52 PM 46.6161 -96.0747 308° West 335 386 14,200 -1,525 Descending Minneapolis Center
Wed 10:45:53 PM 46.6781 -96.1878 309° West 339 390 13,100 -1,082 Descending Minneapolis Center
Wed 10:46:54 PM 46.7372 -96.3000 308° West 338 389 12,000 -976 Descending Minneapolis Center
Wed 10:47:56 PM 46.7906 -96.4003 308° West 327 376 11,100 -1,073 Descending Minneapolis Center
Wed 10:48:57 PM 46.8369 -96.4894 307° West 268 308 9,800 -1,525 Descending Minneapolis Center
Wed 10:49:58 PM 46.8806 -96.5714 308° West 251 289 8,000 -1,770 Descending Minneapolis Center
Wed 10:50:59 PM 46.9339 -96.6197 328° Northwest 260 299 6,200 -1,623 Descending Minneapolis Center
Wed 10:52:00 PM 47.0086 -96.6336 353° North 260 299 4,700 -1,230 Descending Minneapolis Center
Wed 10:53:01 PM 47.0811 -96.6467 353° North 254 292 3,700 -689 Descending Minneapolis Center
Wed 10:54:02 PM 47.1183 -96.7064 312° West 211 243 3,300 -390 Descending Minneapolis Center
Wed 10:55:04 PM 47.1269 -96.7900 279° West 217 250 2,900 -390 Descending Minneapolis Center
Wed 10:56:05 PM 47.0739 -96.8147 198° South 204 235 2,500 -197 Descending Minneapolis Center
Wed 10:57:06 PM 47.0267 -96.8147 180° South 168 193 2,500 -148 Level Minneapolis Center
Wed 10:58:07 PM 46.9908 -96.8153 181° South 141 162 2,200 -443 Descending Minneapolis Center
Wed 10:59:08 PM 46.9614 -96.8161 181° South 106 122 1,600 -590 Descending Minneapolis Center

Login

Don't have an account? Register now (free) for customized features, flight alerts, and more!